createdAt,value
2017-08-02T00:01:20.586Z,87.90
2017-08-02T00:03:46.569Z,88.00
2017-08-02T00:06:12.524Z,88.20
2017-08-02T00:08:38.523Z,88.10
2017-08-02T00:11:04.513Z,88.10
2017-08-02T00:13:30.545Z,88.10
2017-08-02T00:15:56.514Z,88.30
2017-08-02T00:18:22.474Z,88.80
2017-08-02T00:20:48.438Z,89.10
2017-08-02T00:23:14.495Z,88.90
2017-08-02T00:25:41.283Z,89.40
2017-08-02T00:28:07.311Z,89.60
2017-08-02T00:30:33.331Z,89.70
2017-08-02T00:32:59.389Z,89.90
2017-08-02T00:35:25.422Z,89.80
2017-08-02T00:37:51.387Z,89.50
2017-08-02T00:40:17.321Z,89.80
2017-08-02T00:42:43.272Z,90.10
2017-08-02T00:53:52.135Z,90.90
2017-08-02T00:56:18.100Z,90.50
2017-08-02T00:58:44.774Z,90.70
2017-08-02T01:01:10.744Z,90.70
2017-08-02T01:03:36.681Z,90.70
2017-08-02T01:06:02.652Z,90.60
2017-08-02T01:08:28.597Z,90.50
2017-08-02T01:10:54.542Z,90.50
2017-08-02T01:13:20.563Z,90.80
2017-08-02T01:15:46.524Z,90.80
2017-08-02T01:18:12.478Z,91.00
2017-08-02T01:20:39.179Z,91.20
2017-08-02T01:23:05.154Z,91.20
2017-08-02T01:25:31.118Z,91.60
2017-08-02T01:27:57.052Z,91.00
2017-08-02T01:30:23.030Z,91.30
2017-08-02T01:32:49.706Z,91.20
2017-08-02T01:35:15.661Z,91.20
2017-08-02T01:37:41.668Z,91.20
2017-08-02T01:40:07.608Z,91.10
2017-08-02T01:42:33.548Z,91.10
2017-08-02T01:44:59.549Z,91.30
2017-08-02T01:47:25.510Z,91.30
2017-08-02T01:49:51.525Z,91.50
2017-08-02T01:52:17.485Z,91.40
2017-08-02T01:54:43.455Z,91.10
2017-08-02T01:57:09.413Z,91.10
2017-08-02T01:59:35.376Z,91.00
2017-08-02T02:02:02.100Z,91.30
2017-08-02T02:04:28.059Z,91.20
2017-08-02T02:06:54.752Z,91.30
2017-08-02T02:09:20.703Z,91.30
2017-08-02T02:11:46.658Z,92.20
2017-08-02T02:14:13.337Z,92.70
2017-08-02T02:16:39.312Z,92.70
2017-08-02T02:19:05.245Z,92.80
2017-08-02T02:21:31.945Z,92.60
2017-08-02T02:23:58.479Z,92.20
2017-08-02T02:26:24.483Z,92.20
2017-08-02T02:28:50.425Z,92.20
2017-08-02T02:31:16.386Z,92.50
2017-08-02T02:33:42.354Z,92.40
2017-08-02T02:36:08.340Z,93.00
2017-08-02T02:38:34.295Z,92.80
2017-08-02T02:41:00.972Z,92.80
2017-08-02T02:43:26.925Z,92.70
2017-08-02T02:45:52.865Z,93.10
2017-08-02T02:48:18.814Z,93.30
2017-08-02T02:50:44.754Z,93.10
2017-08-02T02:53:11.429Z,93.40
2017-08-02T02:55:37.380Z,93.40
2017-08-02T02:58:03.455Z,93.20
2017-08-02T03:00:29.381Z,93.50
2017-08-02T03:02:56.091Z,92.80
2017-08-02T03:05:22.033Z,92.80
2017-08-02T03:07:47.969Z,92.60
2017-08-02T03:10:13.926Z,92.50
2017-08-02T03:12:41.383Z,92.70
2017-08-02T03:15:08.066Z,93.00
2017-08-02T03:17:34.002Z,92.70
2017-08-02T03:19:59.949Z,92.40
2017-08-02T03:22:25.878Z,92.20
2017-08-02T03:24:51.817Z,92.10
2017-08-02T03:27:17.749Z,92.30
2017-08-02T03:29:43.698Z,92.50
2017-08-02T03:32:09.632Z,91.90
2017-08-02T03:34:35.559Z,91.80
2017-08-02T03:37:01.516Z,91.80
2017-08-02T03:39:27.446Z,91.80
2017-08-02T03:41:53.381Z,91.70
2017-08-02T03:44:19.322Z,91.90
2017-08-02T03:46:45.258Z,92.10
2017-08-02T03:49:11.190Z,91.90
2017-08-02T03:51:37.148Z,92.20
2017-08-02T03:54:03.086Z,92.10
2017-08-02T03:56:29.062Z,91.90
2017-08-02T03:58:54.993Z,91.90
2017-08-02T04:01:20.947Z,92.20
2017-08-02T04:03:47.638Z,92.10
2017-08-02T04:06:13.590Z,92.10
2017-08-02T04:08:39.538Z,92.30
2017-08-02T04:11:05.475Z,92.80
2017-08-02T04:13:32.159Z,93.10
2017-08-02T04:15:58.099Z,93.10
2017-08-02T04:18:24.042Z,93.20
2017-08-02T04:20:49.985Z,93.10
2017-08-02T04:23:16.678Z,92.90
2017-08-02T04:25:42.663Z,92.90
2017-08-02T04:31:20.717Z,93.70
2017-08-02T04:33:46.705Z,93.40
2017-08-02T04:36:13.377Z,93.50
2017-08-02T04:38:39.333Z,93.40
2017-08-02T04:41:05.277Z,93.50
2017-08-02T04:43:31.222Z,93.30
2017-08-02T04:45:57.919Z,93.20
2017-08-02T04:48:23.866Z,93.20
2017-08-02T04:50:49.800Z,92.90
2017-08-02T04:53:15.751Z,92.70
2017-08-02T04:55:42.441Z,92.50
2017-08-02T04:58:08.381Z,92.50
2017-08-02T05:00:34.345Z,92.50
2017-08-02T05:03:00.347Z,92.30
2017-08-02T05:05:26.290Z,92.20
2017-08-02T05:07:52.231Z,92.10
2017-08-02T05:10:18.431Z,91.80
2017-08-02T05:12:44.378Z,91.90
2017-08-02T05:15:10.361Z,91.90
2017-08-02T05:17:36.305Z,91.90
2017-08-02T05:20:02.301Z,91.80
2017-08-02T05:22:28.251Z,91.60
2017-08-02T05:39:30.755Z,93.00
2017-08-02T05:41:56.714Z,93.00
2017-08-02T05:44:22.685Z,92.80
2017-08-02T05:46:49.357Z,92.60
2017-08-02T05:49:15.349Z,92.60
2017-08-02T05:51:42.027Z,92.60
2017-08-02T05:54:08.030Z,92.50
2017-08-02T05:56:33.995Z,92.40
2017-08-02T05:58:59.966Z,92.50
2017-08-02T06:01:39.392Z,92.40
2017-08-02T06:04:05.305Z,92.10
2017-08-02T06:06:31.276Z,91.80
2017-08-02T06:08:57.242Z,91.70
2017-08-02T06:11:23.161Z,92.40
2017-08-02T06:13:49.090Z,92.80
2017-08-02T06:16:15.011Z,92.50
2017-08-02T06:18:41.702Z,91.70
2017-08-02T06:21:07.634Z,91.70
2017-08-02T06:23:49.155Z,91.40
2017-08-02T06:26:15.837Z,91.00
2017-08-02T06:28:41.762Z,91.00
2017-08-02T06:31:07.718Z,91.00
2017-08-02T06:33:33.658Z,91.00
2017-08-02T06:36:00.349Z,90.90
2017-08-02T06:38:26.301Z,90.90
2017-08-02T06:41:12.194Z,91.10
2017-08-02T06:43:38.146Z,91.60
2017-08-02T06:46:04.857Z,92.00
2017-08-02T06:48:31.078Z,92.00
2017-08-02T06:50:57.011Z,92.20
2017-08-02T06:53:22.943Z,92.20
2017-08-02T06:55:48.881Z,91.50
2017-08-02T06:58:14.810Z,91.70
2017-08-02T07:00:40.775Z,91.50
2017-08-02T07:03:07.463Z,91.00
2017-08-02T07:05:33.487Z,91.00
2017-08-02T07:07:59.421Z,90.80
2017-08-02T07:10:25.365Z,90.30
2017-08-02T07:12:51.350Z,90.00
2017-08-02T07:15:17.350Z,89.80
2017-08-02T07:17:47.535Z,89.30
2017-08-02T07:20:13.473Z,89.20
2017-08-02T07:22:39.443Z,88.80
2017-08-02T07:25:05.386Z,89.30
2017-08-02T07:27:31.341Z,88.90
2017-08-02T07:29:57.305Z,88.10
2017-08-02T07:32:36.262Z,88.00
2017-08-02T07:35:02.197Z,87.40
2017-08-02T07:37:28.140Z,88.50
2017-08-02T07:39:54.066Z,88.70
2017-08-02T07:42:20.041Z,88.30
2017-08-02T07:44:45.997Z,86.60
2017-08-02T07:47:12.014Z,85.80
2017-08-02T07:49:38.710Z,85.40
2017-08-02T07:52:04.630Z,85.40
2017-08-02T07:54:30.562Z,85.30
2017-08-02T07:56:56.533Z,85.60
2017-08-02T07:59:22.465Z,85.80
2017-08-02T08:01:49.213Z,85.60
2017-08-02T08:04:15.892Z,84.90
2017-08-02T08:06:41.811Z,84.80
2017-08-02T08:09:07.750Z,84.90
2017-08-02T08:11:33.684Z,84.70
2017-08-02T08:13:59.631Z,83.00
2017-08-02T08:16:25.576Z,82.00
2017-08-02T08:18:51.540Z,82.10
2017-08-02T08:21:17.486Z,81.10
2017-08-02T08:23:43.442Z,81.00
2017-08-02T08:26:10.170Z,78.60
2017-08-02T08:28:36.146Z,78.60
2017-08-02T08:31:02.841Z,75.90
2017-08-02T08:33:28.827Z,75.80
2017-08-02T08:35:54.787Z,76.60
2017-08-02T08:38:20.719Z,78.50
2017-08-02T08:40:46.661Z,78.50
2017-08-02T08:43:13.385Z,75.60
2017-08-02T08:45:39.328Z,75.40
2017-08-02T08:48:05.261Z,75.50
2017-08-02T08:50:31.190Z,75.00
2017-08-02T08:52:57.145Z,75.40
2017-08-02T08:55:23.843Z,75.70
2017-08-02T08:57:49.765Z,74.90
2017-08-02T09:00:15.745Z,73.80
2017-08-02T09:02:42.482Z,72.00
2017-08-02T09:05:08.451Z,72.00
2017-08-02T09:07:40.193Z,70.40
2017-08-02T09:10:07.831Z,67.80
2017-08-02T09:12:34.525Z,67.80
2017-08-02T09:15:10.219Z,67.70
2017-08-02T09:17:36.165Z,67.80
2017-08-02T09:20:02.114Z,69.60
2017-08-02T09:22:28.127Z,68.50
2017-08-02T09:24:55.013Z,65.10
2017-08-02T09:27:20.974Z,65.00
2017-08-02T09:29:46.920Z,66.80
2017-08-02T09:32:12.845Z,66.30
2017-08-02T09:34:38.815Z,67.00
2017-08-02T09:37:04.775Z,66.00
2017-08-02T09:39:30.721Z,64.30
2017-08-02T09:41:56.682Z,59.90
2017-08-02T09:44:23.392Z,61.10
2017-08-02T09:46:49.362Z,61.10
2017-08-02T09:49:15.316Z,60.20
2017-08-02T09:51:41.277Z,60.00
2017-08-02T09:54:07.218Z,58.80
2017-08-02T09:56:33.157Z,59.50
2017-08-02T09:58:59.869Z,59.00
2017-08-02T10:01:25.810Z,58.90
2017-08-02T10:03:51.758Z,58.80
2017-08-02T10:06:18.446Z,58.70
2017-08-02T10:08:44.380Z,58.70
2017-08-02T10:11:10.386Z,58.70
2017-08-02T10:13:36.313Z,59.10
2017-08-02T10:16:02.245Z,58.60
2017-08-02T10:21:22.511Z,58.80
2017-08-02T10:23:49.241Z,57.80
2017-08-02T10:26:22.174Z,57.70
2017-08-02T10:28:48.121Z,55.60
2017-08-02T10:31:14.039Z,55.30
2017-08-02T10:33:39.974Z,54.10
2017-08-02T10:36:05.920Z,54.00
2017-08-02T10:38:31.858Z,53.60
2017-08-02T10:40:57.808Z,53.40
2017-08-02T10:43:23.738Z,53.10
2017-08-02T10:45:50.437Z,54.60
2017-08-02T10:48:16.393Z,54.60
2017-08-02T10:50:42.371Z,55.00
2017-08-02T10:53:08.300Z,54.50
2017-08-02T10:55:34.225Z,53.40
2017-08-02T10:58:00.166Z,53.70
2017-08-02T11:00:30.543Z,53.50
2017-08-02T11:02:56.474Z,52.50
2017-08-02T11:05:26.330Z,53.70
2017-08-02T11:07:52.319Z,53.60
2017-08-02T11:10:26.703Z,53.40
2017-08-02T11:12:54.395Z,53.30
2017-08-02T11:15:20.324Z,53.00
2017-08-02T11:17:50.735Z,52.70
2017-08-02T11:20:16.664Z,52.70
2017-08-02T11:22:58.430Z,51.90
2017-08-02T11:25:26.440Z,52.00
2017-08-02T11:28:14.254Z,51.30
2017-08-02T11:30:40.189Z,50.10
2017-08-02T11:33:06.141Z,50.30
2017-08-02T11:35:32.837Z,49.50
2017-08-02T11:37:58.762Z,49.50
2017-08-02T11:40:24.729Z,50.60
2017-08-02T11:42:51.445Z,51.50
2017-08-02T11:45:17.398Z,50.90
2017-08-02T11:47:43.359Z,49.70
2017-08-02T11:50:09.280Z,50.30
2017-08-02T11:52:35.244Z,49.90
2017-08-02T11:55:01.199Z,49.80
2017-08-02T11:57:27.133Z,48.90
2017-08-02T11:59:53.089Z,49.40
2017-08-02T12:02:20.851Z,48.60
2017-08-02T12:04:47.528Z,48.60
2017-08-02T12:07:24.483Z,48.60
2017-08-02T12:09:50.431Z,48.50
2017-08-02T12:12:27.191Z,49.60
2017-08-02T12:15:10.554Z,49.70
2017-08-02T12:17:44.026Z,49.70
2017-08-02T12:20:14.455Z,49.90
2017-08-02T12:22:52.751Z,50.00
2017-08-02T12:25:22.037Z,50.20
2017-08-02T12:28:01.197Z,49.80
2017-08-02T12:30:31.735Z,49.40
2017-08-02T12:33:07.906Z,48.90
2017-08-02T12:35:44.470Z,49.10
2017-08-02T12:38:16.717Z,49.20
2017-08-02T12:40:51.162Z,48.90
2017-08-02T12:43:22.593Z,48.50
2017-08-02T12:45:54.891Z,48.70
2017-08-02T12:48:34.108Z,47.90
2017-08-02T12:51:06.582Z,47.70
2017-08-02T12:53:38.845Z,47.30
2017-08-02T12:56:16.074Z,48.10
2017-08-02T12:58:48.285Z,47.10
2017-08-02T13:01:24.672Z,47.20
2017-08-02T13:03:55.977Z,46.80
2017-08-02T13:06:32.381Z,45.40
2017-08-02T13:09:06.718Z,44.60
2017-08-02T13:11:41.034Z,44.00
2017-08-02T13:14:17.512Z,44.80
2017-08-02T13:16:49.896Z,44.90
2017-08-02T13:19:17.924Z,44.80
2017-08-02T13:21:57.417Z,45.20
2017-08-02T13:24:31.800Z,44.80
2017-08-02T13:27:06.108Z,45.10
2017-08-02T13:29:32.058Z,43.60
2017-08-02T13:32:09.842Z,43.30
2017-08-02T13:34:40.342Z,43.20
2017-08-02T13:37:13.746Z,42.30
2017-08-02T13:39:39.781Z,41.80
2017-08-02T13:42:14.329Z,41.60
2017-08-02T13:44:40.301Z,41.60
2017-08-02T13:47:06.394Z,41.70
2017-08-02T13:49:32.366Z,41.00
2017-08-02T13:51:59.111Z,41.20
2017-08-02T13:54:35.944Z,41.20
2017-08-02T13:57:01.989Z,41.70
2017-08-02T13:59:27.935Z,43.10
2017-08-02T14:01:54.901Z,42.80
2017-08-02T14:04:20.960Z,42.80
2017-08-02T14:06:49.021Z,41.90
2017-08-02T14:09:15.977Z,42.60
2017-08-02T14:11:47.219Z,41.50
2017-08-02T14:14:14.931Z,41.40
2017-08-02T14:16:44.215Z,41.40
2017-08-02T14:19:16.994Z,39.60
2017-08-02T14:21:45.031Z,38.90
2017-08-02T14:24:16.805Z,39.40
2017-08-02T14:26:45.165Z,39.90
2017-08-02T14:29:11.214Z,40.20
2017-08-02T14:31:45.566Z,39.60
2017-08-02T14:34:37.024Z,40.00
2017-08-02T14:37:07.581Z,40.00
2017-08-02T14:39:35.572Z,40.00
2017-08-02T14:42:22.355Z,40.10
2017-08-02T14:45:00.824Z,41.20
2017-08-02T14:47:33.368Z,42.70
2017-08-02T14:53:01.046Z,40.60
2017-08-02T14:55:33.411Z,41.70
2017-08-02T14:58:06.713Z,40.30
2017-08-02T15:00:38.174Z,41.20
2017-08-02T15:12:06.920Z,41.90
2017-08-02T15:14:51.679Z,42.40
2017-08-02T15:17:26.154Z,42.60
2017-08-02T15:19:56.547Z,42.30
2017-08-02T15:22:37.874Z,42.10
2017-08-02T15:25:12.374Z,42.00
2017-08-02T15:27:46.818Z,42.30
2017-08-02T15:30:27.177Z,42.30
2017-08-02T15:38:54.743Z,43.40
2017-08-02T15:41:20.696Z,43.80
2017-08-02T15:43:53.437Z,43.50
2017-08-02T15:49:13.431Z,43.70
2017-08-02T15:57:41.421Z,44.20
2017-08-02T16:05:57.813Z,43.10
2017-08-02T16:11:27.650Z,42.60
2017-08-02T16:14:00.100Z,43.50
2017-08-02T16:16:26.048Z,43.90
2017-08-02T16:18:56.673Z,43.30
2017-08-02T16:24:22.521Z,45.00
2017-08-02T16:26:49.580Z,44.00
2017-08-02T16:29:20.176Z,43.70
2017-08-02T16:31:52.488Z,43.50
2017-08-02T16:34:39.030Z,44.60
2017-08-02T16:37:12.596Z,43.20
2017-08-02T16:39:42.069Z,43.60
2017-08-02T16:53:54.540Z,45.70
2017-08-02T16:56:35.673Z,45.00
2017-08-02T17:01:56.865Z,45.00
2017-08-02T17:04:22.816Z,44.50
2017-08-02T17:12:59.631Z,45.10
2017-08-02T17:15:43.090Z,45.10
2017-08-02T17:18:12.441Z,44.60
2017-08-02T17:20:50.977Z,46.00
2017-08-02T17:23:25.288Z,46.00
2017-08-02T17:25:59.632Z,45.20
2017-08-02T17:28:33.920Z,44.80
2017-08-02T17:31:08.288Z,46.10
2017-08-02T17:33:44.608Z,44.90
2017-08-02T17:36:17.824Z,44.70
2017-08-02T17:38:50.202Z,45.40
2017-08-02T17:41:24.579Z,46.10
2017-08-02T17:43:58.930Z,45.60
2017-08-02T17:46:31.293Z,45.50
2017-08-02T17:49:07.909Z,46.20
2017-08-02T17:51:41.178Z,45.60
2017-08-02T17:54:12.502Z,45.50
2017-08-02T17:56:45.704Z,45.60
2017-08-02T17:59:24.125Z,45.10
2017-08-02T18:01:55.446Z,45.50
2017-08-02T18:04:22.757Z,46.00
2017-08-02T18:06:53.102Z,45.90
2017-08-02T18:09:19.044Z,46.10
2017-08-02T18:11:47.750Z,45.90
2017-08-02T18:14:21.780Z,46.00
2017-08-02T18:19:44.609Z,46.00
2017-08-02T18:22:30.831Z,46.00
2017-08-02T18:24:56.779Z,45.90
2017-08-02T18:27:38.677Z,45.80
2017-08-02T18:30:10.208Z,45.90
2017-08-02T18:32:47.589Z,47.10
2017-08-02T18:35:20.898Z,47.30
2017-08-02T18:37:53.453Z,47.50
2017-08-02T18:40:19.427Z,47.90
2017-08-02T18:43:03.256Z,47.50
2017-08-02T18:45:37.956Z,47.90
2017-08-02T18:48:07.647Z,48.20
2017-08-02T18:50:46.567Z,48.90
2017-08-02T19:04:47.695Z,49.80
2017-08-02T19:13:11.091Z,52.00
2017-08-02T19:21:36.382Z,53.60
2017-08-02T19:26:56.668Z,54.10
2017-08-02T19:35:19.946Z,58.40
2017-08-02T19:38:11.403Z,59.70
2017-08-02T19:40:48.307Z,61.30
2017-08-02T19:43:33.719Z,61.50
2017-08-02T19:48:53.105Z,64.20
2017-08-02T19:51:23.699Z,64.20
2017-08-02T19:53:57.526Z,65.40
2017-08-02T20:02:18.957Z,66.50
2017-08-02T20:04:58.383Z,66.60
2017-08-02T20:07:45.663Z,67.40
2017-08-02T20:10:20.168Z,69.90
2017-08-02T20:12:46.138Z,70.80
2017-08-02T20:15:32.890Z,69.90
2017-08-02T20:18:07.322Z,69.80
2017-08-02T20:20:40.588Z,70.80
2017-08-02T20:23:14.994Z,71.40
2017-08-02T20:25:49.340Z,71.60
2017-08-02T20:28:23.734Z,72.30
2017-08-02T20:30:56.008Z,72.30
2017-08-02T20:33:32.386Z,71.80
2017-08-02T20:36:05.660Z,71.60
2017-08-02T20:38:38.115Z,72.10
2017-08-02T20:41:04.869Z,72.20
2017-08-02T20:43:48.704Z,72.20
2017-08-02T20:46:22.018Z,73.10
2017-08-02T20:48:56.350Z,73.60
2017-08-02T20:51:27.653Z,73.40
2017-08-02T20:54:04.968Z,73.80
2017-08-02T20:56:38.507Z,73.80
2017-08-02T20:59:09.701Z,73.10
2017-08-02T21:01:47.220Z,73.60
2017-08-02T21:04:21.574Z,73.40
2017-08-02T21:06:55.060Z,74.00
2017-08-02T21:09:29.346Z,74.70
2017-08-02T21:12:03.582Z,73.80
2017-08-02T21:14:35.921Z,73.90
2017-08-02T21:17:11.402Z,74.70
2017-08-02T21:19:47.996Z,74.70
2017-08-02T21:22:19.305Z,74.90
2017-08-02T21:24:55.565Z,75.00
2017-08-02T21:27:29.829Z,75.60
2017-08-02T21:30:02.160Z,74.90
2017-08-02T21:32:36.480Z,75.20
2017-08-02T21:35:07.087Z,75.60
2017-08-02T21:37:44.323Z,75.70
2017-08-02T21:40:18.606Z,75.60
2017-08-02T21:42:46.583Z,75.50
2017-08-02T21:45:26.245Z,77.30
2017-08-02T21:47:57.674Z,75.80
2017-08-02T21:50:30.125Z,76.90
2017-08-02T21:53:09.704Z,77.20
2017-08-02T21:55:40.917Z,77.20
2017-08-02T21:58:14.369Z,77.30
2017-08-02T22:00:51.927Z,77.30
2017-08-02T22:03:17.924Z,78.50
2017-08-02T22:05:44.611Z,78.40
2017-08-02T22:08:10.545Z,78.40
2017-08-02T22:10:36.504Z,78.70
2017-08-02T22:13:02.573Z,78.20
2017-08-02T22:15:29.288Z,79.40
2017-08-02T22:17:55.214Z,79.40
2017-08-02T22:20:21.180Z,79.20
2017-08-02T22:22:47.145Z,77.90
2017-08-02T22:25:13.126Z,77.30
2017-08-02T22:27:57.118Z,76.90
2017-08-02T22:30:23.102Z,76.80
2017-08-02T22:32:49.140Z,77.20
2017-08-02T22:35:15.074Z,77.30
2017-08-02T22:37:41.061Z,78.50
2017-08-02T22:40:08.678Z,79.80
2017-08-02T22:42:34.644Z,79.80
2017-08-02T22:45:00.630Z,80.00
2017-08-02T22:47:26.589Z,81.30
2017-08-02T22:49:53.245Z,82.10
2017-08-02T22:52:19.198Z,82.30
2017-08-02T22:54:45.923Z,82.60
2017-08-02T22:57:11.895Z,82.10
2017-08-02T22:59:37.879Z,81.90
2017-08-02T23:02:05.181Z,82.20
2017-08-02T23:04:31.123Z,81.00
2017-08-02T23:06:57.086Z,81.70
2017-08-02T23:09:23.009Z,81.80
2017-08-02T23:11:48.950Z,81.70
2017-08-02T23:14:14.872Z,81.10
2017-08-02T23:16:40.809Z,81.90
2017-08-02T23:21:57.774Z,80.80
2017-08-02T23:33:19.136Z,81.10
2017-08-02T23:35:45.160Z,81.30
2017-08-02T23:38:11.096Z,82.30
2017-08-02T23:40:37.102Z,82.50
2017-08-02T23:43:03.063Z,82.20
2017-08-02T23:45:29.012Z,81.70
2017-08-02T23:47:55.797Z,81.10
2017-08-02T23:50:21.738Z,81.10
2017-08-02T23:52:47.675Z,81.60
2017-08-02T23:55:13.628Z,82.00
2017-08-02T23:57:39.565Z,81.00
